sensor_id;sensor_type;location;lat;lon;timestamp;pressure;altitude;pressure_sealevel;temperature;humidity
9249;BME280;4660;41.768;26.198;2023-05-23T00:01:29;100493.34;;;15.78;100.00
9249;BME280;4660;41.768;26.198;2023-05-23T00:03:56;100500.19;;;15.74;100.00
9249;BME280;4660;41.768;26.198;2023-05-23T00:06:22;100505.28;;;15.68;100.00
9249;BME280;4660;41.768;26.198;2023-05-23T00:08:47;100496.00;;;15.63;100.00
9249;BME280;4660;41.768;26.198;2023-05-23T00:11:14;100491.94;;;15.59;100.00
9249;BME280;4660;41.768;26.198;2023-05-23T00:13:40;100491.91;;;15.67;100.00
9249;BME280;4660;41.768;26.198;2023-05-23T00:16:06;100501.34;;;15.79;100.00
9249;BME280;4660;41.768;26.198;2023-05-23T00:18:35;100506.56;;;15.81;100.00
9249;BME280;4660;41.768;26.198;2023-05-23T00:21:00;100509.75;;;15.84;100.00
9249;BME280;4660;41.768;26.198;2023-05-23T00:23:26;100507.03;;;15.84;100.00
9249;BME280;4660;41.768;26.198;2023-05-23T00:25:56;100506.91;;;15.78;100.00
9249;BME280;4660;41.768;26.198;2023-05-23T00:28:22;100496.53;;;15.58;100.00
9249;BME280;4660;41.768;26.198;2023-05-23T00:30:48;100487.88;;;15.55;100.00
9249;BME280;4660;41.768;26.198;2023-05-23T00:33:17;100488.44;;;15.50;100.00
9249;BME280;4660;41.768;26.198;2023-05-23T00:35:46;100498.59;;;15.48;100.00
9249;BME280;4660;41.768;26.198;2023-05-23T00:38:12;100495.94;;;15.40;100.00
9249;BME280;4660;41.768;26.198;2023-05-23T00:40:38;100499.31;;;15.42;100.00
9249;BME280;4660;41.768;26.198;2023-05-23T00:43:04;100476.31;;;15.38;100.00
9249;BME280;4660;41.768;26.198;2023-05-23T00:45:30;100498.19;;;15.67;100.00
9249;BME280;4660;41.768;26.198;2023-05-23T00:47:55;100497.63;;;15.41;100.00
9249;BME280;4660;41.768;26.198;2023-05-23T00:50:23;100478.34;;;15.36;100.00
9249;BME280;4660;41.768;26.198;2023-05-23T00:52:50;100487.53;;;15.27;100.00
9249;BME280;4660;41.768;26.198;2023-05-23T00:55:15;100487.75;;;15.48;100.00
9249;BME280;4660;41.768;26.198;2023-05-23T00:57:41;100468.09;;;15.23;100.00
9249;BME280;4660;41.768;26.198;2023-05-23T01:00:11;100485.19;;;15.24;100.00
9249;BME280;4660;41.768;26.198;2023-05-23T01:02:47;100475.72;;;15.20;100.00
9249;BME280;4660;41.768;26.198;2023-05-23T01:05:16;100481.53;;;15.08;100.00
9249;BME280;4660;41.768;26.198;2023-05-23T01:07:49;100477.72;;;15.26;100.00
9249;BME280;4660;41.768;26.198;2023-05-23T01:10:16;100472.44;;;15.32;100.00
9249;BME280;4660;41.768;26.198;2023-05-23T01:15:28;100467.97;;;15.17;100.00
9249;BME280;4660;41.768;26.198;2023-05-23T01:20:34;100465.06;;;15.18;100.00
9249;BME280;4660;41.768;26.198;2023-05-23T01:28:28;100472.63;;;15.31;100.00
9249;BME280;4660;41.768;26.198;2023-05-23T01:31:01;100468.84;;;15.40;100.00
9249;BME280;4660;41.768;26.198;2023-05-23T01:33:28;100458.16;;;15.38;100.00
9249;BME280;4660;41.768;26.198;2023-05-23T01:35:57;100465.09;;;15.41;100.00
9249;BME280;4660;41.768;26.198;2023-05-23T01:38:25;100465.94;;;15.41;100.00
9249;BME280;4660;41.768;26.198;2023-05-23T01:40:52;100454.00;;;15.28;100.00
9249;BME280;4660;41.768;26.198;2023-05-23T01:43:18;100458.00;;;15.09;100.00
9249;BME280;4660;41.768;26.198;2023-05-23T01:45:43;100427.78;;;14.89;100.00
9249;BME280;4660;41.768;26.198;2023-05-23T01:48:10;100454.59;;;15.07;100.00
9249;BME280;4660;41.768;26.198;2023-05-23T01:50:37;100457.88;;;15.02;100.00
9249;BME280;4660;41.768;26.198;2023-05-23T01:53:05;100459.50;;;15.11;100.00
9249;BME280;4660;41.768;26.198;2023-05-23T01:55:31;100470.63;;;15.25;100.00
9249;BME280;4660;41.768;26.198;2023-05-23T01:57:58;100461.13;;;15.21;100.00
9249;BME280;4660;41.768;26.198;2023-05-23T02:00:24;100470.63;;;15.25;100.00
9249;BME280;4660;41.768;26.198;2023-05-23T02:02:49;100437.78;;;14.89;100.00
9249;BME280;4660;41.768;26.198;2023-05-23T02:05:15;100467.06;;;14.93;100.00
9249;BME280;4660;41.768;26.198;2023-05-23T02:07:40;100472.16;;;14.88;100.00
9249;BME280;4660;41.768;26.198;2023-05-23T02:10:07;100478.91;;;14.84;100.00
9249;BME280;4660;41.768;26.198;2023-05-23T02:12:33;100483.41;;;15.00;100.00
9249;BME280;4660;41.768;26.198;2023-05-23T02:14:59;100477.19;;;14.91;100.00
9249;BME280;4660;41.768;26.198;2023-05-23T02:17:24;100482.56;;;14.99;100.00
9249;BME280;4660;41.768;26.198;2023-05-23T02:19:50;100462.47;;;14.85;100.00
9249;BME280;4660;41.768;26.198;2023-05-23T02:22:15;100467.31;;;15.06;100.00
9249;BME280;4660;41.768;26.198;2023-05-23T02:24:41;100475.84;;;14.95;100.00
9249;BME280;4660;41.768;26.198;2023-05-23T02:27:07;100474.19;;;14.78;100.00
9249;BME280;4660;41.768;26.198;2023-05-23T02:29:32;100484.16;;;14.85;100.00
9249;BME280;4660;41.768;26.198;2023-05-23T02:31:58;100479.94;;;14.83;100.00
9249;BME280;4660;41.768;26.198;2023-05-23T02:34:23;100481.84;;;14.74;100.00
9249;BME280;4660;41.768;26.198;2023-05-23T02:36:49;100478.63;;;14.71;100.00
9249;BME280;4660;41.768;26.198;2023-05-23T02:39:16;100483.38;;;14.69;100.00
9249;BME280;4660;41.768;26.198;2023-05-23T02:41:42;100472.56;;;14.61;100.00
9249;BME280;4660;41.768;26.198;2023-05-23T02:44:07;100482.38;;;14.62;100.00
9249;BME280;4660;41.768;26.198;2023-05-23T02:46:33;100488.75;;;14.77;100.00
9249;BME280;4660;41.768;26.198;2023-05-23T02:48:58;100486.03;;;14.85;100.00
9249;BME280;4660;41.768;26.198;2023-05-23T02:51:24;100484.97;;;15.02;100.00
9249;BME280;4660;41.768;26.198;2023-05-23T02:53:49;100491.13;;;14.80;100.00
9249;BME280;4660;41.768;26.198;2023-05-23T02:56:14;100484.00;;;14.87;100.00
9249;BME280;4660;41.768;26.198;2023-05-23T02:58:40;100480.59;;;14.85;100.00
9249;BME280;4660;41.768;26.198;2023-05-23T03:01:06;100497.28;;;15.05;100.00
9249;BME280;4660;41.768;26.198;2023-05-23T03:03:33;100495.78;;;15.02;100.00
9249;BME280;4660;41.768;26.198;2023-05-23T03:06:02;100490.69;;;15.07;100.00
9249;BME280;4660;41.768;26.198;2023-05-23T03:08:29;100495.16;;;14.84;100.00
9249;BME280;4660;41.768;26.198;2023-05-23T03:10:54;100479.66;;;14.62;100.00
9249;BME280;4660;41.768;26.198;2023-05-23T03:13:20;100485.44;;;14.58;100.00
9249;BME280;4660;41.768;26.198;2023-05-23T03:15:46;100488.81;;;14.61;100.00
9249;BME280;4660;41.768;26.198;2023-05-23T03:18:12;100495.06;;;14.61;100.00
9249;BME280;4660;41.768;26.198;2023-05-23T03:20:37;100484.78;;;14.48;100.00
9249;BME280;4660;41.768;26.198;2023-05-23T03:23:03;100500.31;;;14.54;100.00
9249;BME280;4660;41.768;26.198;2023-05-23T03:25:28;100489.84;;;14.51;100.00
9249;BME280;4660;41.768;26.198;2023-05-23T03:27:54;100504.56;;;14.65;100.00
9249;BME280;4660;41.768;26.198;2023-05-23T03:30:20;100501.28;;;14.86;100.00
9249;BME280;4660;41.768;26.198;2023-05-23T03:32:45;100502.56;;;14.98;100.00
9249;BME280;4660;41.768;26.198;2023-05-23T03:35:11;100495.72;;;14.79;100.00
9249;BME280;4660;41.768;26.198;2023-05-23T03:37:36;100504.31;;;14.83;100.00
9249;BME280;4660;41.768;26.198;2023-05-23T03:40:03;100508.53;;;14.94;100.00
9249;BME280;4660;41.768;26.198;2023-05-23T03:42:29;100494.47;;;14.90;100.00
9249;BME280;4660;41.768;26.198;2023-05-23T03:44:54;100516.16;;;14.90;100.00
9249;BME280;4660;41.768;26.198;2023-05-23T03:47:20;100519.81;;;15.05;100.00
9249;BME280;4660;41.768;26.198;2023-05-23T03:49:45;100507.78;;;15.08;100.00
9249;BME280;4660;41.768;26.198;2023-05-23T03:52:12;100502.22;;;15.01;100.00
9249;BME280;4660;41.768;26.198;2023-05-23T03:54:38;100481.44;;;14.94;100.00
9249;BME280;4660;41.768;26.198;2023-05-23T03:57:04;100509.97;;;15.12;100.00
9249;BME280;4660;41.768;26.198;2023-05-23T03:59:29;100512.63;;;15.21;100.00
9249;BME280;4660;41.768;26.198;2023-05-23T04:01:55;100502.91;;;15.03;100.00
9249;BME280;4660;41.768;26.198;2023-05-23T04:04:23;100510.31;;;15.09;100.00
9249;BME280;4660;41.768;26.198;2023-05-23T04:06:50;100512.88;;;15.03;100.00
9249;BME280;4660;41.768;26.198;2023-05-23T04:09:16;100513.66;;;15.20;100.00
9249;BME280;4660;41.768;26.198;2023-05-23T04:11:42;100519.72;;;15.30;100.00
9249;BME280;4660;41.768;26.198;2023-05-23T04:14:08;100516.22;;;15.52;100.00
9249;BME280;4660;41.768;26.198;2023-05-23T04:16:34;100510.59;;;15.54;100.00
9249;BME280;4660;41.768;26.198;2023-05-23T04:19:00;100510.22;;;15.57;100.00
9249;BME280;4660;41.768;26.198;2023-05-23T04:21:27;100519.25;;;15.49;100.00
9249;BME280;4660;41.768;26.198;2023-05-23T04:23:52;100515.28;;;15.37;100.00
9249;BME280;4660;41.768;26.198;2023-05-23T04:26:18;100526.28;;;15.35;100.00
9249;BME280;4660;41.768;26.198;2023-05-23T04:28:45;100517.50;;;15.33;100.00
9249;BME280;4660;41.768;26.198;2023-05-23T04:31:11;100515.31;;;15.29;100.00
9249;BME280;4660;41.768;26.198;2023-05-23T04:33:37;100491.69;;;15.14;100.00
9249;BME280;4660;41.768;26.198;2023-05-23T04:36:03;100505.28;;;15.37;100.00
9249;BME280;4660;41.768;26.198;2023-05-23T04:38:29;100513.50;;;15.52;100.00
9249;BME280;4660;41.768;26.198;2023-05-23T04:40:56;100518.19;;;15.66;100.00
9249;BME280;4660;41.768;26.198;2023-05-23T04:43:22;100522.28;;;15.62;100.00
9249;BME280;4660;41.768;26.198;2023-05-23T04:45:50;100510.06;;;15.66;100.00
9249;BME280;4660;41.768;26.198;2023-05-23T04:48:18;100516.91;;;15.77;100.00
9249;BME280;4660;41.768;26.198;2023-05-23T04:50:46;100516.75;;;16.02;100.00
9249;BME280;4660;41.768;26.198;2023-05-23T04:53:13;100506.03;;;16.08;100.00
9249;BME280;4660;41.768;26.198;2023-05-23T04:55:38;100523.19;;;16.23;100.00
9249;BME280;4660;41.768;26.198;2023-05-23T04:58:04;100534.28;;;16.14;100.00
9249;BME280;4660;41.768;26.198;2023-05-23T05:00:32;100530.19;;;16.18;100.00
9249;BME280;4660;41.768;26.198;2023-05-23T05:02:57;100518.69;;;16.16;100.00
9249;BME280;4660;41.768;26.198;2023-05-23T05:05:23;100518.03;;;16.29;100.00
9249;BME280;4660;41.768;26.198;2023-05-23T05:07:48;100532.88;;;16.41;100.00
9249;BME280;4660;41.768;26.198;2023-05-23T05:10:14;100529.47;;;16.24;100.00
9249;BME280;4660;41.768;26.198;2023-05-23T05:12:45;100532.91;;;16.18;100.00
9249;BME280;4660;41.768;26.198;2023-05-23T05:15:15;100518.63;;;16.39;100.00
9249;BME280;4660;41.768;26.198;2023-05-23T05:17:44;100533.56;;;16.58;100.00
9249;BME280;4660;41.768;26.198;2023-05-23T05:20:10;100528.78;;;16.45;100.00
9249;BME280;4660;41.768;26.198;2023-05-23T05:22:39;100508.78;;;16.23;100.00
9249;BME280;4660;41.768;26.198;2023-05-23T05:25:08;100520.69;;;16.37;100.00
9249;BME280;4660;41.768;26.198;2023-05-23T05:27:34;100525.84;;;16.32;100.00
9249;BME280;4660;41.768;26.198;2023-05-23T05:29:59;100537.88;;;16.52;100.00
9249;BME280;4660;41.768;26.198;2023-05-23T05:32:29;100519.44;;;16.24;100.00
9249;BME280;4660;41.768;26.198;2023-05-23T05:35:02;100532.97;;;16.47;100.00
9249;BME280;4660;41.768;26.198;2023-05-23T05:37:28;100535.84;;;16.31;100.00
9249;BME280;4660;41.768;26.198;2023-05-23T05:39:54;100547.47;;;16.40;100.00
9249;BME280;4660;41.768;26.198;2023-05-23T05:42:21;100539.88;;;16.35;100.00
9249;BME280;4660;41.768;26.198;2023-05-23T05:44:48;100541.84;;;16.41;100.00
9249;BME280;4660;41.768;26.198;2023-05-23T05:47:14;100536.00;;;16.52;100.00
9249;BME280;4660;41.768;26.198;2023-05-23T05:49:40;100543.09;;;16.54;100.00
9249;BME280;4660;41.768;26.198;2023-05-23T05:52:07;100547.31;;;16.56;100.00
9249;BME280;4660;41.768;26.198;2023-05-23T05:54:34;100549.50;;;16.61;100.00
9249;BME280;4660;41.768;26.198;2023-05-23T05:57:00;100551.25;;;16.54;100.00
9249;BME280;4660;41.768;26.198;2023-05-23T05:59:25;100557.22;;;16.49;100.00
9249;BME280;4660;41.768;26.198;2023-05-23T06:01:53;100561.44;;;16.37;100.00
9249;BME280;4660;41.768;26.198;2023-05-23T06:04:18;100555.34;;;16.49;100.00
9249;BME280;4660;41.768;26.198;2023-05-23T06:06:44;100557.22;;;16.49;100.00
9249;BME280;4660;41.768;26.198;2023-05-23T06:09:10;100532.91;;;16.18;100.00
9249;BME280;4660;41.768;26.198;2023-05-23T06:11:36;100564.84;;;16.54;100.00
9249;BME280;4660;41.768;26.198;2023-05-23T06:14:05;100574.47;;;16.56;100.00
9249;BME280;4660;41.768;26.198;2023-05-23T06:16:32;100573.09;;;16.60;100.00
9249;BME280;4660;41.768;26.198;2023-05-23T06:18:57;100549.97;;;16.27;100.00
9249;BME280;4660;41.768;26.198;2023-05-23T06:21:23;100564.91;;;16.45;100.00
9249;BME280;4660;41.768;26.198;2023-05-23T06:23:49;100568.28;;;16.47;100.00
9249;BME280;4660;41.768;26.198;2023-05-23T06:26:15;100573.09;;;16.60;100.00
9249;BME280;4660;41.768;26.198;2023-05-23T06:28:43;100537.94;;;16.44;100.00
9249;BME280;4660;41.768;26.198;2023-05-23T06:31:08;100547.69;;;16.53;100.00
9249;BME280;4660;41.768;26.198;2023-05-23T06:33:37;100561.19;;;16.61;100.00
9249;BME280;4660;41.768;26.198;2023-05-23T06:36:03;100559.50;;;16.60;100.00
9249;BME280;4660;41.768;26.198;2023-05-23T06:38:30;100566.13;;;16.81;100.00
9249;BME280;4660;41.768;26.198;2023-05-23T06:40:58;100555.88;;;16.68;100.00
9249;BME280;4660;41.768;26.198;2023-05-23T06:43:24;100563.50;;;16.72;100.00
9249;BME280;4660;41.768;26.198;2023-05-23T06:45:50;100572.59;;;16.80;100.00
9249;BME280;4660;41.768;26.198;2023-05-23T06:48:16;100558.44;;;16.69;100.00
9249;BME280;4660;41.768;26.198;2023-05-23T06:50:41;100560.78;;;16.72;100.00
9249;BME280;4660;41.768;26.198;2023-05-23T06:53:07;100541.44;;;16.67;100.00
9249;BME280;4660;41.768;26.198;2023-05-23T06:55:33;100559.13;;;16.86;100.00
9249;BME280;4660;41.768;26.198;2023-05-23T06:57:59;100550.88;;;16.94;100.00
9249;BME280;4660;41.768;26.198;2023-05-23T07:00:25;100551.13;;;17.14;100.00
9249;BME280;4660;41.768;26.198;2023-05-23T07:02:51;100546.38;;;17.16;100.00
9249;BME280;4660;41.768;26.198;2023-05-23T07:05:16;100560.91;;;17.23;100.00
9249;BME280;4660;41.768;26.198;2023-05-23T07:07:42;100543.66;;;17.16;100.00
9249;BME280;4660;41.768;26.198;2023-05-23T07:10:08;100538.09;;;17.39;100.00
9249;BME280;4660;41.768;26.198;2023-05-23T07:12:34;100548.56;;;17.72;100.00
9249;BME280;4660;41.768;26.198;2023-05-23T07:15:00;100547.84;;;17.84;100.00
9249;BME280;4660;41.768;26.198;2023-05-23T07:17:26;100536.97;;;17.84;100.00
9249;BME280;4660;41.768;26.198;2023-05-23T07:19:54;100553.06;;;18.01;100.00
9249;BME280;4660;41.768;26.198;2023-05-23T07:22:26;100546.97;;;18.20;100.00
9249;BME280;4660;41.768;26.198;2023-05-23T07:24:52;100547.13;;;18.40;100.00
9249;BME280;4660;41.768;26.198;2023-05-23T07:27:17;100547.19;;;18.47;100.00
9249;BME280;4660;41.768;26.198;2023-05-23T07:29:46;100533.88;;;18.58;100.00
9249;BME280;4660;41.768;26.198;2023-05-23T07:32:12;100544.16;;;18.84;100.00
9249;BME280;4660;41.768;26.198;2023-05-23T07:34:37;100540.84;;;18.89;100.00
9249;BME280;4660;41.768;26.198;2023-05-23T07:37:03;100535.09;;;19.12;100.00
9249;BME280;4660;41.768;26.198;2023-05-23T07:39:28;100542.47;;;19.18;100.00
9249;BME280;4660;41.768;26.198;2023-05-23T07:41:54;100537.91;;;19.25;100.00
9249;BME280;4660;41.768;26.198;2023-05-23T07:44:20;100546.53;;;19.35;100.00
9249;BME280;4660;41.768;26.198;2023-05-23T07:46:46;100557.53;;;19.55;100.00
9249;BME280;4660;41.768;26.198;2023-05-23T07:49:11;100551.09;;;19.63;100.00
9249;BME280;4660;41.768;26.198;2023-05-23T07:51:37;100549.13;;;19.57;100.00
9249;BME280;4660;41.768;26.198;2023-05-23T07:54:02;100545.00;;;19.61;100.00
9249;BME280;4660;41.768;26.198;2023-05-23T07:56:28;100544.91;;;19.95;100.00
9249;BME280;4660;41.768;26.198;2023-05-23T07:58:54;100534.41;;;20.05;100.00
9249;BME280;4660;41.768;26.198;2023-05-23T08:01:19;100548.31;;;20.24;100.00
9249;BME280;4660;41.768;26.198;2023-05-23T08:03:47;100555.00;;;20.28;100.00
9249;BME280;4660;41.768;26.198;2023-05-23T08:06:13;100551.03;;;20.37;100.00
9249;BME280;4660;41.768;26.198;2023-05-23T08:08:38;100537.78;;;20.21;100.00
9249;BME280;4660;41.768;26.198;2023-05-23T08:11:04;100556.50;;;20.30;100.00
9249;BME280;4660;41.768;26.198;2023-05-23T08:13:30;100546.81;;;20.34;100.00
9249;BME280;4660;41.768;26.198;2023-05-23T08:15:56;100549.16;;;20.38;100.00
9249;BME280;4660;41.768;26.198;2023-05-23T08:18:21;100509.41;;;20.35;100.00
9249;BME280;4660;41.768;26.198;2023-05-23T08:20:47;100542.44;;;20.60;100.00
9249;BME280;4660;41.768;26.198;2023-05-23T08:23:12;100517.22;;;20.65;100.00
9249;BME280;4660;41.768;26.198;2023-05-23T08:25:38;100541.78;;;20.71;100.00
9249;BME280;4660;41.768;26.198;2023-05-23T08:28:04;100551.47;;;20.87;100.00
9249;BME280;4660;41.768;26.198;2023-05-23T08:30:30;100539.28;;;20.63;100.00
9249;BME280;4660;41.768;26.198;2023-05-23T08:37:54;100508.56;;;20.41;100.00
9249;BME280;4660;41.768;26.198;2023-05-23T08:40:23;100547.69;;;20.68;100.00
9249;BME280;4660;41.768;26.198;2023-05-23T08:42:50;100545.13;;;20.93;100.00
9249;BME280;4660;41.768;26.198;2023-05-23T08:45:17;100546.41;;;20.77;100.00
9249;BME280;4660;41.768;26.198;2023-05-23T08:47:54;100522.03;;;20.76;100.00
9249;BME280;4660;41.768;26.198;2023-05-23T08:50:20;100436.50;;;20.29;100.00
9249;BME280;4660;41.768;26.198;2023-05-23T08:52:58;100470.78;;;20.45;100.00
9249;BME280;4660;41.768;26.198;2023-05-23T08:55:28;100453.31;;;20.39;100.00
9249;BME280;4660;41.768;26.198;2023-05-23T08:58:10;100424.50;;;20.43;100.00
9249;BME280;4660;41.768;26.198;2023-05-23T09:00:37;100548.41;;;21.22;100.00
9249;BME280;4660;41.768;26.198;2023-05-23T09:03:04;100487.50;;;21.01;100.00
9249;BME280;4660;41.768;26.198;2023-05-23T09:05:29;100553.69;;;21.81;100.00
9249;BME280;4660;41.768;26.198;2023-05-23T09:07:55;100477.44;;;21.47;100.00
9249;BME280;4660;41.768;26.198;2023-05-23T09:10:26;100465.00;;;21.51;100.00
9249;BME280;4660;41.768;26.198;2023-05-23T09:12:54;100472.00;;;21.71;100.00
9249;BME280;4660;41.768;26.198;2023-05-23T09:15:20;100545.31;;;22.39;100.00
9249;BME280;4660;41.768;26.198;2023-05-23T09:17:48;100514.28;;;22.45;100.00
9249;BME280;4660;41.768;26.198;2023-05-23T09:20:16;100521.50;;;22.65;100.00
9249;BME280;4660;41.768;26.198;2023-05-23T09:22:48;100523.91;;;22.55;100.00
9249;BME280;4660;41.768;26.198;2023-05-23T09:25:14;100529.25;;;22.43;100.00
9249;BME280;4660;41.768;26.198;2023-05-23T09:27:40;100517.47;;;22.17;100.00
9249;BME280;4660;41.768;26.198;2023-05-23T09:30:08;100541.09;;;22.05;100.00
9249;BME280;4660;41.768;26.198;2023-05-23T09:32:33;100529.63;;;21.90;100.00
9249;BME280;4660;41.768;26.198;2023-05-23T09:35:01;100514.44;;;21.94;100.00
9249;BME280;4660;41.768;26.198;2023-05-23T09:37:36;100539.00;;;22.39;100.00
9249;BME280;4660;41.768;26.198;2023-05-23T09:40:10;100520.56;;;22.71;100.00
9249;BME280;4660;41.768;26.198;2023-05-23T09:42:47;100526.44;;;22.99;100.00
9249;BME280;4660;41.768;26.198;2023-05-23T09:45:14;100517.28;;;23.05;100.00
9249;BME280;4660;41.768;26.198;2023-05-23T09:47:52;100509.66;;;23.44;100.00
9249;BME280;4660;41.768;26.198;2023-05-23T09:50:18;100498.44;;;23.46;100.00
9249;BME280;4660;41.768;26.198;2023-05-23T09:52:44;100520.56;;;23.51;100.00
9249;BME280;4660;41.768;26.198;2023-05-23T09:55:10;100519.25;;;23.35;100.00
9249;BME280;4660;41.768;26.198;2023-05-23T09:57:40;100516.44;;;23.05;100.00
9249;BME280;4660;41.768;26.198;2023-05-23T10:00:06;100522.19;;;22.78;100.00
9249;BME280;4660;41.768;26.198;2023-05-23T10:07:58;100516.81;;;22.90;100.00
9249;BME280;4660;41.768;26.198;2023-05-23T10:10:25;100511.81;;;22.87;100.00
9249;BME280;4660;41.768;26.198;2023-05-23T10:12:55;100519.19;;;22.87;100.00
9249;BME280;4660;41.768;26.198;2023-05-23T10:15:23;100511.88;;;22.99;100.00
9249;BME280;4660;41.768;26.198;2023-05-23T10:18:01;100522.97;;;22.86;100.00
9249;BME280;4660;41.768;26.198;2023-05-23T10:20:31;100518.16;;;22.81;100.00
9249;BME280;4660;41.768;26.198;2023-05-23T10:23:00;100507.13;;;22.44;100.00
9249;BME280;4660;41.768;26.198;2023-05-23T10:25:27;100487.63;;;22.28;100.00
9249;BME280;4660;41.768;26.198;2023-05-23T10:27:55;100502.91;;;22.42;100.00
9249;BME280;4660;41.768;26.198;2023-05-23T10:30:31;100516.97;;;22.52;100.00
9249;BME280;4660;41.768;26.198;2023-05-23T10:32:59;100510.34;;;22.60;100.00
9249;BME280;4660;41.768;26.198;2023-05-23T10:35:49;100525.09;;;22.84;100.00
9249;BME280;4660;41.768;26.198;2023-05-23T10:38:36;100520.81;;;22.94;100.00
9249;BME280;4660;41.768;26.198;2023-05-23T10:41:15;100528.59;;;23.16;100.00
9249;BME280;4660;41.768;26.198;2023-05-23T10:43:54;100479.34;;;23.02;100.00
9249;BME280;4660;41.768;26.198;2023-05-23T10:46:21;100506.91;;;22.89;100.00
9249;BME280;4660;41.768;26.198;2023-05-23T10:48:47;100520.06;;;22.80;100.00
9249;BME280;4660;41.768;26.198;2023-05-23T10:51:37;100512.19;;;23.09;100.00
9249;BME280;4660;41.768;26.198;2023-05-23T10:54:10;100520.56;;;23.51;100.00
9249;BME280;4660;41.768;26.198;2023-05-23T10:56:37;100494.47;;;23.42;100.00
9249;BME280;4660;41.768;26.198;2023-05-23T10:59:04;100516.13;;;23.68;100.00
9249;BME280;4660;41.768;26.198;2023-05-23T11:01:31;100528.34;;;23.35;100.00
9249;BME280;4660;41.768;26.198;2023-05-23T11:04:04;100514.16;;;23.20;100.00
9249;BME280;4660;41.768;26.198;2023-05-23T11:06:42;100545.63;;;22.99;100.00
9249;BME280;4660;41.768;26.198;2023-05-23T11:09:26;100495.94;;;22.46;100.00
9249;BME280;4660;41.768;26.198;2023-05-23T11:11:53;100517.13;;;22.32;100.00
9249;BME280;4660;41.768;26.198;2023-05-23T11:20:02;100539.28;;;22.31;100.00
9249;BME280;4660;41.768;26.198;2023-05-23T11:22:35;100527.13;;;22.20;100.00
9249;BME280;4660;41.768;26.198;2023-05-23T11:25:06;100538.50;;;22.23;100.00
9249;BME280;4660;41.768;26.198;2023-05-23T11:27:34;100519.38;;;22.17;100.00
9249;BME280;4660;41.768;26.198;2023-05-23T11:32:34;100510.22;;;21.91;100.00
9249;BME280;4660;41.768;26.198;2023-05-23T11:35:04;100536.25;;;22.07;100.00
9249;BME280;4660;41.768;26.198;2023-05-23T11:37:31;100514.16;;;22.09;100.00
9249;BME280;4660;41.768;26.198;2023-05-23T11:39:57;100530.16;;;22.05;100.00
9249;BME280;4660;41.768;26.198;2023-05-23T11:42:23;100527.06;;;21.95;100.00
9249;BME280;4660;41.768;26.198;2023-05-23T11:44:51;100514.81;;;21.97;100.00
9249;BME280;4660;41.768;26.198;2023-05-23T11:47:17;100526.19;;;22.01;100.00
9249;BME280;4660;41.768;26.198;2023-05-23T11:49:45;100519.31;;;21.85;100.00
9249;BME280;4660;41.768;26.198;2023-05-23T11:52:11;100517.81;;;21.89;100.00
9249;BME280;4660;41.768;26.198;2023-05-23T11:54:39;100499.25;;;21.91;100.00
9249;BME280;4660;41.768;26.198;2023-05-23T11:57:06;100512.72;;;21.93;100.00
9249;BME280;4660;41.768;26.198;2023-05-23T11:59:32;100515.84;;;22.03;100.00
9249;BME280;4660;41.768;26.198;2023-05-23T12:01:58;100521.38;;;21.96;100.00
9249;BME280;4660;41.768;26.198;2023-05-23T12:04:24;100521.13;;;21.98;100.00
9249;BME280;4660;41.768;26.198;2023-05-23T12:06:51;100513.22;;;21.83;100.00
9249;BME280;4660;41.768;26.198;2023-05-23T12:09:16;100511.53;;;22.20;100.00
9249;BME280;4660;41.768;26.198;2023-05-23T12:11:43;100495.75;;;22.41;100.00
9249;BME280;4660;41.768;26.198;2023-05-23T12:14:13;100506.81;;;22.28;100.00
9249;BME280;4660;41.768;26.198;2023-05-23T12:16:42;100511.09;;;22.92;100.00
9249;BME280;4660;41.768;26.198;2023-05-23T12:19:09;100503.09;;;23.27;100.00
9249;BME280;4660;41.768;26.198;2023-05-23T12:21:45;100509.94;;;23.54;100.00
9249;BME280;4660;41.768;26.198;2023-05-23T12:24:16;100499.34;;;23.58;100.00
9249;BME280;4660;41.768;26.198;2023-05-23T12:26:53;100502.06;;;23.76;100.00
9249;BME280;4660;41.768;26.198;2023-05-23T12:29:29;100488.81;;;23.85;100.00
9249;BME280;4660;41.768;26.198;2023-05-23T12:31:57;100494.50;;;24.02;100.00
9249;BME280;4660;41.768;26.198;2023-05-23T12:34:23;100487.53;;;23.99;100.00
9249;BME280;4660;41.768;26.198;2023-05-23T12:36:49;100484.41;;;23.84;100.00
9249;BME280;4660;41.768;26.198;2023-05-23T12:39:29;100484.59;;;24.01;100.00
9249;BME280;4660;41.768;26.198;2023-05-23T12:42:10;100465.91;;;24.45;100.00
9249;BME280;4660;41.768;26.198;2023-05-23T12:44:36;100459.78;;;24.78;100.00
9249;BME280;4660;41.768;26.198;2023-05-23T12:47:02;100479.31;;;25.40;100.00
9249;BME280;4660;41.768;26.198;2023-05-23T12:49:28;100484.94;;;25.73;100.00
9249;BME280;4660;41.768;26.198;2023-05-23T12:51:53;100486.00;;;26.01;100.00
9249;BME280;4660;41.768;26.198;2023-05-23T12:54:19;100449.13;;;25.90;100.00
9249;BME280;4660;41.768;26.198;2023-05-23T12:56:45;100480.38;;;25.79;100.00
9249;BME280;4660;41.768;26.198;2023-05-23T12:59:10;100479.97;;;26.04;100.00
9249;BME280;4660;41.768;26.198;2023-05-23T13:01:36;100464.31;;;25.47;100.00
9249;BME280;4660;41.768;26.198;2023-05-23T13:04:02;100458.31;;;25.22;100.00
9249;BME280;4660;41.768;26.198;2023-05-23T13:06:27;100465.53;;;24.88;100.00
9249;BME280;4660;41.768;26.198;2023-05-23T13:08:53;100456.22;;;24.65;100.00
9249;BME280;4660;41.768;26.198;2023-05-23T13:11:22;100449.25;;;24.63;100.00
9249;BME280;4660;41.768;26.198;2023-05-23T13:13:49;100448.53;;;24.32;100.00
9249;BME280;4660;41.768;26.198;2023-05-23T13:16:21;100442.25;;;24.43;100.00
9249;BME280;4660;41.768;26.198;2023-05-23T13:18:47;100441.00;;;24.75;100.00
9249;BME280;4660;41.768;26.198;2023-05-23T13:21:13;100453.06;;;25.09;100.00